createdAt,value
2018-03-23T00:01:26.144Z,72.9
2018-03-23T00:11:30.652Z,63.4
2018-03-23T00:21:28.097Z,69.8
2018-03-23T00:31:26.634Z,69.4
2018-03-23T00:41:28.616Z,70.3
2018-03-23T00:51:27.182Z,70.6
2018-03-23T01:01:31.523Z,68.9
2018-03-23T01:11:26.497Z,69.5
2018-03-23T01:21:27.616Z,69.4
2018-03-23T01:31:29.344Z,69.0
2018-03-23T01:41:26.729Z,65.6
2018-03-23T01:51:26.830Z,67.1
2018-03-23T02:01:26.389Z,64.1
2018-03-23T02:11:26.360Z,67.3
2018-03-23T02:21:28.634Z,65.8
2018-03-23T02:31:26.320Z,64.4
2018-03-23T02:41:26.043Z,69.4
2018-03-23T02:51:28.213Z,68.8
2018-03-23T03:01:26.096Z,67.3
2018-03-23T03:11:25.941Z,67.4
2018-03-23T03:21:26.982Z,59.0
2018-03-23T03:31:28.195Z,63.8
2018-03-23T03:41:26.459Z,63.5
2018-03-23T03:51:27.634Z,61.6
2018-03-23T04:01:26.713Z,65.8
2018-03-23T04:11:26.713Z,63.5
2018-03-23T04:21:25.626Z,54.9
2018-03-23T04:31:26.702Z,59.5
2018-03-23T04:41:26.139Z,63.3
2018-03-23T04:51:26.904Z,66.2
2018-03-23T05:01:26.716Z,67.0
2018-03-23T05:11:26.071Z,67.5
2018-03-23T05:21:27.549Z,68.0
2018-03-23T05:31:26.072Z,65.3
2018-03-23T05:41:32.059Z,64.6
2018-03-23T05:51:32.090Z,53.5
2018-03-23T06:01:31.815Z,46.3
2018-03-23T06:11:32.246Z,49.9
2018-03-23T06:21:33.294Z,44.8
2018-03-23T14:11:32.268Z,20.4
2018-03-23T15:41:34.246Z,20.3
2018-03-23T15:51:26.282Z,19.4
2018-03-23T16:01:31.839Z,19.8
2018-03-23T16:11:37.603Z,19.6
2018-03-23T16:21:36.715Z,20.0
2018-03-23T16:31:28.967Z,21.2
2018-03-23T16:41:37.756Z,23.2
2018-03-23T16:52:05.597Z,25.5
2018-03-23T17:11:33.331Z,25.1
2018-03-23T17:21:32.308Z,27.3
2018-03-23T17:31:36.490Z,29.3
2018-03-23T17:41:31.934Z,30.3
2018-03-23T17:51:26.549Z,31.0
2018-03-23T18:01:28.560Z,32.1
2018-03-23T18:11:29.564Z,34.1
2018-03-23T18:21:26.907Z,35.0
2018-03-23T18:31:32.361Z,37.6
2018-03-23T18:41:31.380Z,38.5
2018-03-23T18:51:32.810Z,41.7
2018-03-23T19:01:31.799Z,39.7
2018-03-23T19:11:33.984Z,37.6
2018-03-23T19:21:28.724Z,39.8
2018-03-23T19:31:33.042Z,39.2
2018-03-23T19:41:31.774Z,44.4
2018-03-23T19:51:26.896Z,44.3
2018-03-23T20:02:47.019Z,45.9
2018-03-23T20:11:27.320Z,49.3
2018-03-23T20:21:26.638Z,48.8
2018-03-23T20:31:32.045Z,50.3
2018-03-23T20:41:32.805Z,50.8
2018-03-23T20:51:31.729Z,48.9
2018-03-23T21:01:33.320Z,49.3
2018-03-23T21:11:39.395Z,50.8
2018-03-23T21:21:31.829Z,51.0
2018-03-23T21:31:35.326Z,50.4
2018-03-23T21:41:31.360Z,50.9
2018-03-23T21:51:33.561Z,51.1
2018-03-23T22:01:31.557Z,52.3
2018-03-23T22:11:31.627Z,50.9
2018-03-23T22:21:31.885Z,49.3
2018-03-23T22:31:28.253Z,48.7
2018-03-23T22:41:26.326Z,48.7
2018-03-23T22:51:25.834Z,48.7
2018-03-23T23:01:28.046Z,48.3
2018-03-23T23:11:28.762Z,51.1
2018-03-23T23:21:26.596Z,52.3
2018-03-23T23:31:26.781Z,52.9
2018-03-23T23:41:27.320Z,49.2
2018-03-23T23:51:27.571Z,51.3
